createdAt,value
2023-01-28T00:00:53.675Z,1.71
2023-01-28T00:03:20.821Z,1.73
2023-01-28T00:05:47.474Z,1.72
2023-01-28T00:08:14.868Z,1.75
2023-01-28T00:10:43.245Z,1.76
2023-01-28T00:13:14.887Z,1.73
2023-01-28T00:15:42.019Z,1.78
2023-01-28T00:18:08.815Z,1.78
2023-01-28T00:20:35.663Z,1.78
2023-01-28T00:23:02.542Z,1.72
2023-01-28T00:25:29.429Z,1.79
2023-01-28T00:27:56.037Z,1.78
2023-01-28T00:30:23.453Z,1.79
2023-01-28T00:32:50.491Z,1.78
2023-01-28T00:35:17.707Z,1.82
2023-01-28T00:37:47.222Z,1.83
2023-01-28T00:40:14.119Z,1.81
2023-01-28T00:42:40.829Z,1.82
2023-01-28T00:45:07.888Z,1.77
2023-01-28T00:47:34.651Z,1.76
2023-01-28T00:50:01.279Z,1.76
2023-01-28T00:52:28.503Z,1.77
2023-01-28T00:54:55.395Z,1.72
2023-01-28T00:57:22.003Z,1.69
2023-01-28T00:59:48.741Z,1.64
2023-01-28T01:02:15.420Z,1.55
2023-01-28T01:04:54.914Z,1.45
2023-01-28T01:07:34.842Z,1.42
2023-01-28T01:10:02.750Z,1.38
2023-01-28T01:12:29.988Z,1.33
2023-01-28T01:14:57.567Z,1.29
2023-01-28T01:17:24.454Z,1.22
2023-01-28T01:19:51.553Z,1.19
2023-01-28T01:22:18.311Z,1.17
2023-01-28T01:24:44.909Z,1.14
2023-01-28T01:27:11.819Z,1.14
2023-01-28T01:29:39.433Z,1.00
2023-01-28T01:32:06.098Z,1.09
2023-01-28T01:34:32.769Z,1.07
2023-01-28T01:36:59.441Z,1.06
2023-01-28T01:39:26.169Z,1.05
2023-01-28T01:41:53.035Z,0.99
2023-01-28T01:45:00.070Z,0.97
2023-01-28T01:47:41.566Z,0.94
2023-01-28T01:50:20.490Z,0.90
2023-01-28T01:52:51.583Z,0.84
2023-01-28T01:55:24.732Z,0.85
2023-01-28T01:57:53.472Z,0.82
2023-01-28T02:00:20.288Z,0.80
2023-01-28T02:02:49.572Z,0.80
2023-01-28T02:05:19.712Z,0.78
2023-01-28T02:07:49.522Z,0.76
2023-01-28T02:10:17.476Z,0.72
2023-01-28T02:12:47.946Z,0.72
2023-01-28T02:15:18.108Z,0.70
2023-01-28T02:17:45.694Z,0.71
2023-01-28T02:20:19.559Z,0.72
2023-01-28T02:23:18.418Z,0.72
2023-01-28T02:26:03.014Z,0.75
2023-01-28T02:28:37.717Z,0.75
2023-01-28T02:31:38.899Z,0.75
2023-01-28T02:34:10.287Z,0.77
2023-01-28T02:37:12.973Z,0.79
2023-01-28T02:39:49.148Z,0.80
2023-01-28T02:42:21.515Z,0.80
2023-01-28T02:44:48.169Z,0.81
2023-01-28T02:47:35.131Z,0.81
2023-01-28T02:50:05.757Z,0.78
2023-01-28T02:53:30.208Z,0.86
2023-01-28T02:56:22.470Z,0.86
2023-01-28T02:59:27.654Z,0.85
2023-01-28T03:02:00.001Z,0.93
2023-01-28T03:04:35.695Z,0.95
2023-01-28T03:07:07.667Z,0.96
2023-01-28T03:09:37.865Z,0.91
2023-01-28T03:12:34.838Z,1.08
2023-01-28T03:15:27.973Z,1.09
2023-01-28T03:18:37.336Z,1.16
2023-01-28T03:21:22.496Z,1.19
2023-01-28T03:24:15.249Z,1.23
2023-01-28T03:27:30.966Z,1.25
2023-01-28T03:30:20.105Z,1.28
2023-01-28T03:33:05.633Z,1.28
2023-01-28T03:35:54.478Z,1.30
2023-01-28T03:38:23.174Z,1.32
2023-01-28T03:41:01.433Z,1.34
2023-01-28T03:43:32.010Z,1.32
2023-01-28T03:45:58.678Z,1.32
2023-01-28T03:48:27.344Z,1.35
2023-01-28T03:50:56.340Z,1.34
2023-01-28T03:53:23.189Z,1.28
2023-01-28T03:55:51.471Z,1.32
2023-01-28T03:58:19.385Z,1.32
2023-01-28T04:00:47.011Z,1.32
2023-01-28T04:03:19.404Z,1.31
2023-01-28T04:06:07.411Z,1.35
2023-01-28T04:08:34.325Z,1.35
2023-01-28T04:11:15.910Z,1.35
2023-01-28T04:13:43.782Z,1.34
2023-01-28T04:16:11.687Z,1.37
2023-01-28T04:18:38.551Z,1.33
2023-01-28T04:21:05.734Z,1.36
2023-01-28T04:23:32.410Z,1.36
2023-01-28T04:25:59.401Z,1.33
2023-01-28T04:28:26.255Z,1.33
2023-01-28T04:30:53.182Z,1.38
2023-01-28T04:33:20.119Z,1.36
2023-01-28T04:35:46.972Z,1.32
2023-01-28T04:38:13.605Z,1.26
2023-01-28T04:40:40.463Z,1.25
2023-01-28T04:43:07.053Z,1.29
2023-01-28T04:45:33.676Z,1.24
2023-01-28T04:48:01.117Z,1.33
2023-01-28T04:50:27.719Z,1.34
2023-01-28T04:52:54.282Z,1.34
2023-01-28T04:55:20.885Z,1.35
2023-01-28T04:57:50.810Z,1.36
2023-01-28T05:00:18.093Z,1.32
2023-01-28T05:02:44.751Z,1.36
2023-01-28T05:05:11.415Z,1.38
2023-01-28T05:07:38.042Z,1.38
2023-01-28T05:10:05.316Z,1.32
2023-01-28T05:12:34.075Z,1.33
2023-01-28T05:15:01.399Z,1.32
2023-01-28T05:17:29.111Z,1.32
2023-01-28T05:19:55.952Z,1.30
2023-01-28T05:22:23.039Z,1.31
2023-01-28T05:24:49.846Z,1.32
2023-01-28T05:27:16.538Z,1.30
2023-01-28T05:29:43.608Z,1.32
2023-01-28T05:32:10.419Z,1.31
2023-01-28T05:34:37.147Z,1.28
2023-01-28T05:37:03.775Z,1.30
2023-01-28T05:39:31.514Z,1.30
2023-01-28T05:41:58.426Z,1.28
2023-01-28T05:44:25.018Z,1.27
2023-01-28T05:46:51.828Z,1.27
2023-01-28T05:49:18.420Z,1.28
2023-01-28T05:51:45.103Z,1.27
2023-01-28T05:54:12.412Z,1.28
2023-01-28T05:56:40.353Z,1.26
2023-01-28T05:59:07.062Z,1.21
2023-01-28T06:01:33.844Z,1.18
2023-01-28T06:04:00.623Z,1.25
2023-01-28T06:06:27.366Z,1.26
2023-01-28T06:08:54.270Z,1.22
2023-01-28T06:11:21.000Z,1.26
2023-01-28T06:13:47.759Z,1.23
2023-01-28T06:16:14.752Z,1.24
2023-01-28T06:18:41.472Z,1.25
2023-01-28T06:21:08.470Z,1.27
2023-01-28T06:23:35.148Z,1.25
2023-01-28T06:26:02.108Z,1.29
2023-01-28T06:28:28.908Z,1.30
2023-01-28T06:30:55.714Z,1.31
2023-01-28T06:33:24.271Z,1.32
2023-01-28T06:35:51.016Z,1.38
2023-01-28T06:38:17.921Z,1.36
2023-01-28T06:40:44.595Z,1.39
2023-01-28T06:43:11.520Z,1.45
2023-01-28T06:45:38.256Z,1.47
2023-01-28T06:48:07.218Z,1.51
2023-01-28T06:50:35.622Z,1.55
2023-01-28T06:53:02.317Z,1.57
2023-01-28T06:55:28.919Z,1.59
2023-01-28T06:57:55.633Z,1.61
2023-01-28T07:00:22.477Z,1.62
2023-01-28T07:02:49.117Z,1.68
2023-01-28T07:05:15.894Z,1.72
2023-01-28T07:07:42.702Z,1.75
2023-01-28T07:10:10.799Z,1.79
2023-01-28T07:12:37.436Z,1.81
2023-01-28T07:15:04.713Z,1.85
2023-01-28T07:17:31.568Z,1.89
2023-01-28T07:19:58.330Z,1.96
2023-01-28T07:22:24.999Z,2.01
2023-01-28T07:24:51.913Z,2.05
2023-01-28T07:27:18.685Z,2.06
2023-01-28T07:29:45.370Z,2.12
2023-01-28T07:32:12.069Z,2.17
2023-01-28T07:34:41.733Z,2.16
2023-01-28T07:37:08.600Z,2.20
2023-01-28T07:39:35.308Z,2.26
2023-01-28T07:42:02.397Z,2.30
2023-01-28T07:44:29.241Z,2.29
2023-01-28T07:46:55.899Z,2.35
2023-01-28T07:49:22.542Z,2.39
2023-01-28T07:51:51.130Z,2.42
2023-01-28T07:54:17.778Z,2.45
2023-01-28T07:56:44.406Z,2.48
2023-01-28T07:59:11.352Z,2.50
2023-01-28T08:01:38.088Z,2.63
2023-01-28T08:04:04.995Z,2.66
2023-01-28T08:06:38.169Z,2.72
2023-01-28T08:09:08.452Z,2.77
2023-01-28T08:11:38.902Z,2.79
2023-01-28T08:14:06.187Z,2.79
2023-01-28T08:16:32.800Z,2.79
2023-01-28T08:18:59.499Z,2.80
2023-01-28T08:21:26.215Z,2.82
2023-01-28T08:23:52.891Z,2.83
2023-01-28T08:26:19.746Z,2.85
2023-01-28T08:28:46.828Z,2.90
2023-01-28T08:31:13.550Z,2.93
2023-01-28T08:33:40.205Z,2.93
2023-01-28T08:36:07.369Z,3.00
2023-01-28T08:38:34.043Z,3.00
2023-01-28T08:41:00.984Z,3.02
2023-01-28T08:43:27.839Z,3.02
2023-01-28T08:45:54.417Z,2.93
2023-01-28T08:48:21.838Z,3.06
2023-01-28T08:50:48.682Z,3.08
2023-01-28T08:53:18.386Z,3.04
2023-01-28T08:55:46.534Z,3.05
2023-01-28T08:58:15.986Z,3.05
2023-01-28T09:00:43.471Z,3.04
2023-01-28T09:03:10.252Z,3.06
2023-01-28T09:05:37.937Z,3.10
2023-01-28T09:08:07.563Z,3.12
2023-01-28T09:10:34.832Z,3.17
2023-01-28T09:13:06.905Z,3.20
2023-01-28T09:15:33.932Z,3.21
2023-01-28T09:18:00.838Z,3.23
2023-01-28T09:20:28.184Z,3.12
2023-01-28T09:22:55.044Z,3.21
2023-01-28T09:25:21.935Z,3.18
2023-01-28T09:27:48.671Z,3.22
2023-01-28T09:30:16.012Z,3.29
2023-01-28T09:32:43.573Z,3.30
2023-01-28T09:35:10.601Z,3.36
2023-01-28T09:37:37.415Z,3.39
2023-01-28T09:40:04.582Z,3.42
2023-01-28T09:43:01.686Z,3.45
2023-01-28T09:45:47.917Z,3.41
2023-01-28T09:48:19.444Z,3.39
2023-01-28T09:50:50.371Z,3.37
2023-01-28T09:53:21.735Z,3.32
2023-01-28T09:55:54.058Z,3.32
2023-01-28T09:58:20.784Z,3.32
2023-01-28T10:01:12.147Z,3.35
2023-01-28T10:04:07.357Z,3.38
2023-01-28T10:06:52.297Z,3.43
2023-01-28T10:09:44.380Z,3.42
2023-01-28T10:12:22.918Z,3.37
2023-01-28T10:15:27.203Z,3.34
2023-01-28T10:18:16.127Z,3.30
2023-01-28T10:20:52.686Z,3.26
2023-01-28T10:23:26.429Z,3.17
2023-01-28T10:25:57.678Z,3.08
2023-01-28T10:28:28.123Z,3.06
2023-01-28T10:30:54.957Z,3.02
2023-01-28T10:33:40.066Z,3.10
2023-01-28T10:36:09.421Z,3.14
2023-01-28T10:41:03.798Z,3.04
2023-01-28T10:43:35.344Z,3.03
2023-01-28T10:46:18.492Z,3.08
2023-01-28T10:49:11.858Z,3.12
2023-01-28T10:51:41.939Z,3.22
2023-01-28T10:54:28.822Z,3.24
2023-01-28T10:57:00.762Z,3.32
2023-01-28T10:59:30.759Z,3.36
2023-01-28T11:02:01.588Z,3.39
2023-01-28T11:04:33.733Z,3.52
2023-01-28T11:07:06.675Z,3.54
2023-01-28T11:09:36.497Z,3.51
2023-01-28T11:12:23.691Z,3.59
2023-01-28T11:14:59.350Z,3.58
2023-01-28T11:17:30.166Z,3.62
2023-01-28T11:20:09.717Z,3.67
2023-01-28T11:22:39.423Z,3.74
2023-01-28T11:25:35.281Z,3.81
2023-01-28T11:28:05.798Z,3.67
2023-01-28T11:30:40.885Z,3.80
2023-01-28T11:33:22.654Z,3.77
2023-01-28T11:35:57.630Z,3.70
2023-01-28T11:38:33.303Z,3.63
2023-01-28T11:41:03.190Z,3.56
2023-01-28T11:43:31.878Z,3.63
2023-01-28T11:46:43.547Z,3.71
2023-01-28T11:49:34.195Z,3.77
2023-01-28T11:52:04.185Z,3.74
2023-01-28T11:55:01.558Z,3.69
2023-01-28T11:57:47.405Z,3.60
2023-01-28T12:00:43.005Z,3.59
2023-01-28T12:03:47.248Z,3.63
2023-01-28T12:06:35.740Z,3.70
2023-01-28T12:09:28.109Z,3.77
2023-01-28T12:12:29.079Z,3.84
2023-01-28T12:15:33.625Z,3.87
2023-01-28T12:18:48.052Z,3.88
2023-01-28T12:21:33.575Z,3.86
2023-01-28T12:24:37.866Z,3.85
2023-01-28T12:27:19.543Z,3.83
2023-01-28T12:30:19.435Z,3.78
2023-01-28T12:33:17.656Z,3.69
2023-01-28T12:35:58.612Z,3.58
2023-01-28T12:39:03.052Z,3.52
2023-01-28T12:42:19.398Z,3.50
2023-01-28T12:44:54.284Z,3.47
2023-01-28T12:47:27.369Z,3.43
2023-01-28T12:50:00.029Z,3.38
2023-01-28T12:52:33.024Z,3.42
2023-01-28T12:55:12.852Z,3.44
2023-01-28T12:57:39.569Z,3.44
2023-01-28T13:00:30.229Z,3.41
2023-01-28T13:03:11.790Z,3.42
2023-01-28T13:05:46.637Z,3.38
2023-01-28T13:08:17.290Z,3.41
2023-01-28T13:10:46.003Z,3.36
2023-01-28T13:13:21.305Z,3.43
2023-01-28T13:15:48.039Z,3.45
2023-01-28T13:18:37.615Z,3.48
2023-01-28T13:21:06.172Z,3.47
2023-01-28T13:23:39.843Z,3.47
2023-01-28T13:26:30.049Z,3.48
2023-01-28T13:29:29.331Z,3.49
2023-01-28T13:32:02.007Z,3.46
2023-01-28T13:34:43.854Z,3.42
2023-01-28T13:37:13.644Z,3.36
2023-01-28T13:39:49.184Z,3.32
2023-01-28T13:42:28.337Z,3.32
2023-01-28T13:44:55.996Z,3.31
2023-01-28T13:47:22.766Z,3.29
2023-01-28T13:50:18.367Z,3.22
2023-01-28T13:53:02.810Z,3.23
2023-01-28T13:55:44.117Z,3.29
2023-01-28T13:58:39.782Z,3.35
2023-01-28T14:01:18.494Z,3.37
2023-01-28T14:04:17.091Z,3.35
2023-01-28T14:07:25.554Z,3.33
2023-01-28T14:10:24.006Z,3.39
2023-01-28T14:13:07.978Z,3.42
2023-01-28T14:15:59.724Z,3.43
2023-01-28T14:18:30.001Z,3.39
2023-01-28T14:21:01.821Z,3.29
2023-01-28T14:23:32.793Z,3.23
2023-01-28T14:26:11.768Z,3.14
2023-01-28T14:28:58.884Z,2.99
2023-01-28T14:31:31.129Z,2.86
2023-01-28T14:34:12.130Z,2.74
2023-01-28T14:36:41.412Z,2.63
2023-01-28T14:39:35.680Z,2.53
2023-01-28T14:42:03.619Z,2.47
2023-01-28T14:44:38.265Z,2.44
2023-01-28T14:47:35.481Z,2.40
2023-01-28T14:50:35.084Z,2.38
2023-01-28T14:53:32.499Z,2.31
2023-01-28T14:56:16.433Z,2.25
2023-01-28T14:58:50.597Z,2.17
2023-01-28T15:01:21.984Z,2.19
2023-01-28T15:03:48.731Z,2.14
2023-01-28T15:06:18.304Z,2.12
2023-01-28T15:08:45.427Z,2.06
2023-01-28T15:11:16.623Z,2.06
2023-01-28T15:13:49.393Z,2.10
2023-01-28T15:16:25.552Z,2.11
2023-01-28T15:18:52.783Z,2.09
2023-01-28T15:21:21.263Z,2.10
2023-01-28T15:23:56.092Z,2.10
2023-01-28T15:26:28.410Z,2.14
2023-01-28T15:28:56.074Z,2.17
2023-01-28T15:31:34.926Z,2.19
2023-01-28T15:34:11.089Z,2.18
2023-01-28T15:36:38.553Z,2.17
2023-01-28T15:39:13.545Z,2.12
2023-01-28T15:41:43.998Z,2.08
2023-01-28T15:44:21.003Z,2.10
2023-01-28T15:46:47.871Z,2.12
2023-01-28T15:49:17.110Z,2.10
2023-01-28T15:51:51.285Z,2.14
2023-01-28T15:54:18.262Z,2.15
2023-01-28T15:56:44.929Z,2.14
2023-01-28T15:59:29.586Z,2.04
2023-01-28T16:02:22.590Z,2.00
2023-01-28T16:05:10.672Z,1.87
2023-01-28T16:07:46.409Z,1.78
2023-01-28T16:10:26.684Z,1.85
2023-01-28T16:12:58.612Z,1.84
2023-01-28T16:15:25.314Z,1.77
2023-01-28T16:17:52.853Z,1.71
2023-01-28T16:20:25.934Z,1.63
2023-01-28T16:22:56.940Z,1.65
2023-01-28T16:25:36.930Z,1.67
2023-01-28T16:28:17.143Z,1.69
2023-01-28T16:30:43.941Z,1.69
2023-01-28T16:33:20.173Z,1.68
2023-01-28T16:36:04.412Z,1.65
2023-01-28T16:38:32.279Z,1.57
2023-01-28T16:40:59.288Z,1.55
2023-01-28T16:43:25.948Z,1.56
2023-01-28T16:45:52.907Z,1.55
2023-01-28T16:48:19.516Z,1.52
2023-01-28T16:50:46.977Z,1.53
2023-01-28T16:53:21.355Z,1.51
2023-01-28T16:55:52.166Z,1.48
2023-01-28T16:58:26.333Z,1.51
2023-01-28T17:00:53.331Z,1.53
2023-01-28T17:03:20.109Z,1.53
2023-01-28T17:05:47.514Z,1.53
2023-01-28T17:08:14.412Z,1.47
2023-01-28T17:10:41.215Z,1.53
2023-01-28T17:13:08.061Z,1.50
2023-01-28T17:15:36.144Z,1.50
2023-01-28T17:18:02.768Z,1.47
2023-01-28T17:20:29.784Z,1.46
2023-01-28T17:22:56.406Z,1.46
2023-01-28T17:25:23.009Z,1.37
2023-01-28T17:27:51.142Z,1.40
2023-01-28T17:30:20.767Z,1.39
2023-01-28T17:32:47.456Z,1.37
2023-01-28T17:35:15.861Z,1.35
2023-01-28T17:37:42.841Z,1.34
2023-01-28T17:40:12.603Z,1.33
2023-01-28T17:42:39.531Z,1.29
2023-01-28T17:45:06.555Z,1.25
2023-01-28T17:47:33.145Z,1.19
2023-01-28T17:50:00.279Z,1.21
2023-01-28T17:52:26.915Z,1.17
2023-01-28T17:54:53.567Z,1.16
2023-01-28T17:57:20.628Z,1.12
2023-01-28T17:59:47.470Z,0.97
2023-01-28T18:02:15.072Z,1.00
2023-01-28T18:04:42.955Z,0.90
2023-01-28T18:07:13.222Z,1.00
2023-01-28T18:09:42.197Z,0.98
2023-01-28T18:12:11.454Z,0.95
2023-01-28T18:14:39.386Z,0.90
2023-01-28T18:17:06.968Z,0.85
2023-01-28T18:19:34.333Z,0.80
2023-01-28T18:22:00.996Z,0.73
2023-01-28T18:24:29.594Z,0.65
2023-01-28T18:27:01.183Z,0.59
2023-01-28T18:29:28.999Z,0.53
2023-01-28T18:31:57.749Z,0.46
2023-01-28T18:34:26.761Z,0.43
2023-01-28T18:36:53.854Z,0.37
2023-01-28T18:39:21.438Z,0.31
2023-01-28T18:41:48.267Z,0.26
2023-01-28T18:44:16.484Z,0.20
2023-01-28T18:46:43.319Z,0.16
2023-01-28T18:49:10.876Z,0.08
2023-01-28T18:51:38.726Z,0.04
2023-01-28T18:54:10.619Z,-0.05
2023-01-28T18:56:39.527Z,-0.11
2023-01-28T18:59:10.173Z,-0.17
2023-01-28T19:01:37.158Z,-0.23
2023-01-28T19:04:06.576Z,-0.28
2023-01-28T19:06:33.186Z,-0.30
2023-01-28T19:09:03.285Z,-0.33
2023-01-28T19:11:30.907Z,-0.34
2023-01-28T19:13:57.820Z,-0.38
2023-01-28T19:16:25.031Z,-0.47
2023-01-28T19:19:00.263Z,-0.48
2023-01-28T19:21:28.741Z,-0.49
2023-01-28T19:24:01.275Z,-0.53
2023-01-28T19:26:30.372Z,-0.59
2023-01-28T19:28:57.409Z,-0.65
2023-01-28T19:31:26.471Z,-0.61
2023-01-28T19:33:56.530Z,-0.76
2023-01-28T19:36:26.142Z,-0.70
2023-01-28T19:38:56.871Z,-0.74
2023-01-28T19:41:23.728Z,-0.78
2023-01-28T19:43:50.966Z,-0.80
2023-01-28T19:46:18.553Z,-0.87
2023-01-28T19:48:45.533Z,-0.91
2023-01-28T19:51:13.841Z,-0.95
2023-01-28T19:53:42.143Z,-0.97
2023-01-28T19:56:18.513Z,-0.97
2023-01-28T19:58:46.592Z,-1.00
2023-01-28T20:01:16.464Z,-0.97
2023-01-28T20:03:43.562Z,-0.95
2023-01-28T20:06:15.782Z,-0.97
2023-01-28T20:08:42.748Z,-0.98
2023-01-28T20:11:14.149Z,-0.98
2023-01-28T20:13:43.454Z,-1.01
2023-01-28T20:16:16.649Z,-1.05
2023-01-28T20:18:43.552Z,-1.05
2023-01-28T20:21:10.383Z,-1.10
2023-01-28T20:23:37.018Z,-1.12
2023-01-28T20:26:03.675Z,-1.13
2023-01-28T20:28:30.473Z,-1.19
2023-01-28T20:30:57.689Z,-1.17
2023-01-28T20:33:24.458Z,-1.18
2023-01-28T20:35:51.427Z,-1.19
2023-01-28T20:38:18.038Z,-1.25
2023-01-28T20:40:44.801Z,-1.20
2023-01-28T20:43:11.656Z,-1.19
2023-01-28T20:45:38.373Z,-1.20
2023-01-28T20:48:05.262Z,-1.22
2023-01-28T20:50:31.911Z,-1.24
2023-01-28T20:52:58.724Z,-1.26
2023-01-28T20:55:25.431Z,-1.24
2023-01-28T20:57:52.902Z,-1.23
2023-01-28T21:00:20.090Z,-1.17
2023-01-28T21:02:46.762Z,-1.16
2023-01-28T21:05:13.986Z,-1.09
2023-01-28T21:07:40.825Z,-1.06
2023-01-28T21:10:07.845Z,-1.05
2023-01-28T21:12:34.987Z,-0.97
2023-01-28T21:15:04.817Z,-0.96
2023-01-28T21:17:32.108Z,-0.88
2023-01-28T21:19:59.097Z,-0.84
2023-01-28T21:22:25.981Z,-0.79
2023-01-28T21:24:52.689Z,-0.74
2023-01-28T21:27:19.312Z,-0.70
2023-01-28T21:29:46.071Z,-0.68
2023-01-28T21:32:12.796Z,-0.64
2023-01-28T21:34:39.668Z,-0.60
2023-01-28T21:37:06.431Z,-0.58
2023-01-28T21:39:33.149Z,-0.55
2023-01-28T21:42:00.256Z,-0.47
2023-01-28T21:44:26.983Z,-0.46
2023-01-28T21:46:53.624Z,-0.45
2023-01-28T21:49:20.356Z,-0.42
2023-01-28T21:51:47.277Z,-0.39
2023-01-28T21:54:16.569Z,-0.34
2023-01-28T21:56:45.190Z,-0.29
2023-01-28T21:59:28.083Z,-0.30
2023-01-28T22:01:56.555Z,-0.23
2023-01-28T22:04:24.753Z,-0.20
2023-01-28T22:06:53.221Z,-0.22
2023-01-28T22:09:20.114Z,-0.19
2023-01-28T22:11:46.999Z,-0.25
2023-01-28T22:14:14.134Z,-0.16
2023-01-28T22:16:41.156Z,-0.19
2023-01-28T22:19:08.280Z,-0.12
2023-01-28T22:21:40.996Z,-0.07
2023-01-28T22:24:10.620Z,-0.09
2023-01-28T22:26:37.960Z,-0.05
2023-01-28T22:29:05.213Z,-0.04
2023-01-28T22:31:32.489Z,-0.01
2023-01-28T22:33:59.695Z,-0.06
2023-01-28T22:36:26.580Z,0.01
2023-01-28T22:38:53.541Z,0.03
2023-01-28T22:41:24.524Z,-0.02
2023-01-28T22:43:52.045Z,0.01
2023-01-28T22:46:21.783Z,0.05
2023-01-28T22:48:49.441Z,0.06
2023-01-28T22:51:21.881Z,0.08
2023-01-28T22:53:49.519Z,0.03
2023-01-28T22:56:17.775Z,0.03
2023-01-28T22:58:44.611Z,0.02
2023-01-28T23:01:15.760Z,0.05
2023-01-28T23:03:47.458Z,0.04
2023-01-28T23:06:16.931Z,0.05
2023-01-28T23:08:44.316Z,0.06
2023-01-28T23:11:15.019Z,0.03
2023-01-28T23:14:01.661Z,0.06
2023-01-28T23:16:48.336Z,0.09
2023-01-28T23:19:34.832Z,0.12
2023-01-28T23:22:20.032Z,0.15
2023-01-28T23:24:55.588Z,-0.12
2023-01-28T23:27:33.634Z,0.04
2023-01-28T23:30:08.203Z,-0.16
2023-01-28T23:32:43.595Z,-0.03
2023-01-28T23:35:15.865Z,-0.13
2023-01-28T23:37:48.898Z,0.09
2023-01-28T23:40:29.391Z,0.01
2023-01-28T23:43:07.619Z,-0.17
2023-01-28T23:45:39.900Z,-0.01
2023-01-28T23:48:07.025Z,0.12
2023-01-28T23:50:33.966Z,0.13
2023-01-28T23:53:01.290Z,0.12
2023-01-28T23:55:28.242Z,0.13
2023-01-28T23:57:55.181Z,0.05
